sensor_id;sensor_type;location;lat;lon;timestamp;P1;durP1;ratioP1;P2;durP2;ratioP2
65825;SDS011;52586;-43.152;172.732;2023-04-15T00:01:17;5.90;;;1.65;;
65825;SDS011;52586;-43.152;172.732;2023-04-15T00:03:49;4.25;;;2.05;;
65825;SDS011;52586;-43.152;172.732;2023-04-15T00:06:21;2.17;;;1.45;;
65825;SDS011;52586;-43.152;172.732;2023-04-15T00:08:52;2.67;;;1.67;;
65825;SDS011;52586;-43.152;172.732;2023-04-15T00:11:23;3.50;;;1.55;;
65825;SDS011;52586;-43.152;172.732;2023-04-15T00:13:54;4.10;;;2.08;;
65825;SDS011;52586;-43.152;172.732;2023-04-15T00:16:24;4.10;;;2.10;;
65825;SDS011;52586;-43.152;172.732;2023-04-15T00:18:55;3.63;;;1.67;;
65825;SDS011;52586;-43.152;172.732;2023-04-15T00:21:27;3.22;;;2.08;;
65825;SDS011;52586;-43.152;172.732;2023-04-15T00:23:58;3.38;;;1.65;;
65825;SDS011;52586;-43.152;172.732;2023-04-15T00:26:29;2.92;;;1.67;;
65825;SDS011;52586;-43.152;172.732;2023-04-15T00:29:00;3.92;;;1.73;;
65825;SDS011;52586;-43.152;172.732;2023-04-15T00:31:31;3.78;;;1.67;;
65825;SDS011;52586;-43.152;172.732;2023-04-15T00:34:02;3.55;;;2.00;;
65825;SDS011;52586;-43.152;172.732;2023-04-15T00:36:34;3.17;;;2.10;;
65825;SDS011;52586;-43.152;172.732;2023-04-15T00:39:05;3.97;;;1.75;;
65825;SDS011;52586;-43.152;172.732;2023-04-15T00:41:36;3.45;;;1.90;;
65825;SDS011;52586;-43.152;172.732;2023-04-15T00:44:06;3.45;;;1.60;;
65825;SDS011;52586;-43.152;172.732;2023-04-15T00:46:37;2.25;;;1.45;;
65825;SDS011;52586;-43.152;172.732;2023-04-15T00:49:09;3.67;;;1.40;;
65825;SDS011;52586;-43.152;172.732;2023-04-15T00:51:42;2.92;;;1.60;;
65825;SDS011;52586;-43.152;172.732;2023-04-15T00:54:12;2.97;;;1.35;;
65825;SDS011;52586;-43.152;172.732;2023-04-15T00:56:43;3.03;;;1.50;;
65825;SDS011;52586;-43.152;172.732;2023-04-15T00:59:14;3.65;;;1.50;;
65825;SDS011;52586;-43.152;172.732;2023-04-15T01:01:45;4.60;;;1.42;;
65825;SDS011;52586;-43.152;172.732;2023-04-15T01:04:16;3.88;;;1.60;;
65825;SDS011;52586;-43.152;172.732;2023-04-15T01:06:49;3.25;;;1.80;;
65825;SDS011;52586;-43.152;172.732;2023-04-15T01:09:20;3.90;;;1.98;;
65825;SDS011;52586;-43.152;172.732;2023-04-15T01:11:51;6.22;;;1.70;;
65825;SDS011;52586;-43.152;172.732;2023-04-15T01:14:22;3.17;;;1.58;;
65825;SDS011;52586;-43.152;172.732;2023-04-15T01:16:53;3.25;;;1.70;;
65825;SDS011;52586;-43.152;172.732;2023-04-15T01:19:23;4.20;;;1.65;;
65825;SDS011;52586;-43.152;172.732;2023-04-15T01:21:56;2.72;;;1.65;;
65825;SDS011;52586;-43.152;172.732;2023-04-15T01:24:27;5.57;;;1.85;;
65825;SDS011;52586;-43.152;172.732;2023-04-15T01:27:02;4.15;;;1.63;;
65825;SDS011;52586;-43.152;172.732;2023-04-15T01:29:36;4.05;;;1.90;;
65825;SDS011;52586;-43.152;172.732;2023-04-15T01:32:09;4.13;;;2.00;;
65825;SDS011;52586;-43.152;172.732;2023-04-15T01:34:39;4.68;;;2.00;;
65825;SDS011;52586;-43.152;172.732;2023-04-15T01:37:10;3.78;;;1.80;;
65825;SDS011;52586;-43.152;172.732;2023-04-15T01:39:41;4.88;;;2.10;;
65825;SDS011;52586;-43.152;172.732;2023-04-15T01:42:13;3.70;;;1.77;;
65825;SDS011;52586;-43.152;172.732;2023-04-15T01:44:44;5.97;;;1.70;;
65825;SDS011;52586;-43.152;172.732;2023-04-15T01:47:15;4.75;;;2.00;;
65825;SDS011;52586;-43.152;172.732;2023-04-15T01:49:45;2.97;;;2.08;;
65825;SDS011;52586;-43.152;172.732;2023-04-15T01:52:16;5.10;;;1.90;;
65825;SDS011;52586;-43.152;172.732;2023-04-15T01:54:47;5.22;;;2.03;;
65825;SDS011;52586;-43.152;172.732;2023-04-15T01:57:19;4.35;;;2.08;;
65825;SDS011;52586;-43.152;172.732;2023-04-15T01:59:50;5.20;;;2.20;;
65825;SDS011;52586;-43.152;172.732;2023-04-15T02:02:21;4.82;;;2.10;;
65825;SDS011;52586;-43.152;172.732;2023-04-15T02:04:51;3.55;;;1.65;;
65825;SDS011;52586;-43.152;172.732;2023-04-15T02:07:22;3.80;;;2.10;;
65825;SDS011;52586;-43.152;172.732;2023-04-15T02:09:54;5.22;;;2.28;;
65825;SDS011;52586;-43.152;172.732;2023-04-15T02:12:26;5.38;;;2.25;;
65825;SDS011;52586;-43.152;172.732;2023-04-15T02:14:57;3.67;;;2.35;;
65825;SDS011;52586;-43.152;172.732;2023-04-15T02:17:27;5.78;;;2.42;;
65825;SDS011;52586;-43.152;172.732;2023-04-15T02:19:58;5.35;;;2.70;;
65825;SDS011;52586;-43.152;172.732;2023-04-15T02:22:30;4.35;;;2.47;;
65825;SDS011;52586;-43.152;172.732;2023-04-15T02:25:00;5.65;;;3.15;;
65825;SDS011;52586;-43.152;172.732;2023-04-15T02:27:33;7.97;;;4.30;;
65825;SDS011;52586;-43.152;172.732;2023-04-15T02:30:05;10.27;;;5.13;;
65825;SDS011;52586;-43.152;172.732;2023-04-15T02:32:36;8.48;;;4.25;;
65825;SDS011;52586;-43.152;172.732;2023-04-15T02:35:08;11.63;;;6.55;;
65825;SDS011;52586;-43.152;172.732;2023-04-15T02:37:39;8.25;;;4.95;;
65825;SDS011;52586;-43.152;172.732;2023-04-15T02:40:11;10.45;;;5.97;;
65825;SDS011;52586;-43.152;172.732;2023-04-15T02:42:44;12.63;;;6.63;;
65825;SDS011;52586;-43.152;172.732;2023-04-15T02:45:14;11.35;;;6.03;;
65825;SDS011;52586;-43.152;172.732;2023-04-15T02:47:48;9.00;;;5.60;;
65825;SDS011;52586;-43.152;172.732;2023-04-15T02:50:19;11.43;;;6.03;;
65825;SDS011;52586;-43.152;172.732;2023-04-15T02:52:50;10.60;;;6.28;;
65825;SDS011;52586;-43.152;172.732;2023-04-15T02:55:21;12.18;;;6.03;;
65825;SDS011;52586;-43.152;172.732;2023-04-15T02:57:53;10.23;;;5.90;;
65825;SDS011;52586;-43.152;172.732;2023-04-15T03:00:25;10.75;;;5.70;;
65825;SDS011;52586;-43.152;172.732;2023-04-15T03:02:57;9.77;;;5.57;;
65825;SDS011;52586;-43.152;172.732;2023-04-15T03:05:30;10.48;;;5.55;;
65825;SDS011;52586;-43.152;172.732;2023-04-15T03:08:00;11.35;;;5.65;;
65825;SDS011;52586;-43.152;172.732;2023-04-15T03:10:31;8.68;;;5.43;;
65825;SDS011;52586;-43.152;172.732;2023-04-15T03:13:04;9.88;;;5.32;;
65825;SDS011;52586;-43.152;172.732;2023-04-15T03:15:34;9.90;;;5.13;;
65825;SDS011;52586;-43.152;172.732;2023-04-15T03:18:05;9.65;;;4.90;;
65825;SDS011;52586;-43.152;172.732;2023-04-15T03:20:36;10.48;;;4.50;;
65825;SDS011;52586;-43.152;172.732;2023-04-15T03:23:06;10.20;;;5.45;;
65825;SDS011;52586;-43.152;172.732;2023-04-15T03:25:37;12.38;;;4.85;;
65825;SDS011;52586;-43.152;172.732;2023-04-15T03:28:09;8.25;;;4.93;;
65825;SDS011;52586;-43.152;172.732;2023-04-15T03:30:40;8.43;;;4.55;;
65825;SDS011;52586;-43.152;172.732;2023-04-15T03:33:11;10.93;;;4.35;;
65825;SDS011;52586;-43.152;172.732;2023-04-15T03:35:41;8.40;;;4.38;;
65825;SDS011;52586;-43.152;172.732;2023-04-15T03:38:12;7.75;;;4.50;;
65825;SDS011;52586;-43.152;172.732;2023-04-15T03:40:43;9.93;;;4.75;;
65825;SDS011;52586;-43.152;172.732;2023-04-15T03:43:16;7.40;;;3.97;;
65825;SDS011;52586;-43.152;172.732;2023-04-15T03:45:47;7.22;;;4.07;;
65825;SDS011;52586;-43.152;172.732;2023-04-15T03:48:17;8.48;;;4.50;;
65825;SDS011;52586;-43.152;172.732;2023-04-15T03:50:48;8.93;;;4.30;;
65825;SDS011;52586;-43.152;172.732;2023-04-15T03:53:19;7.45;;;3.83;;
65825;SDS011;52586;-43.152;172.732;2023-04-15T03:55:50;8.15;;;4.25;;
65825;SDS011;52586;-43.152;172.732;2023-04-15T03:58:23;6.45;;;3.20;;
65825;SDS011;52586;-43.152;172.732;2023-04-15T04:00:53;8.65;;;4.75;;
65825;SDS011;52586;-43.152;172.732;2023-04-15T04:03:24;8.48;;;3.92;;
65825;SDS011;52586;-43.152;172.732;2023-04-15T04:05:55;10.82;;;5.13;;
65825;SDS011;52586;-43.152;172.732;2023-04-15T04:08:25;8.35;;;5.28;;
65825;SDS011;52586;-43.152;172.732;2023-04-15T04:10:56;11.35;;;4.97;;
65825;SDS011;52586;-43.152;172.732;2023-04-15T04:13:28;9.40;;;5.40;;
65825;SDS011;52586;-43.152;172.732;2023-04-15T04:15:59;9.20;;;5.97;;
65825;SDS011;52586;-43.152;172.732;2023-04-15T04:18:30;14.20;;;6.93;;
65825;SDS011;52586;-43.152;172.732;2023-04-15T04:21:01;14.38;;;7.85;;
65825;SDS011;52586;-43.152;172.732;2023-04-15T04:23:32;12.85;;;7.95;;
65825;SDS011;52586;-43.152;172.732;2023-04-15T04:26:03;15.38;;;7.57;;
65825;SDS011;52586;-43.152;172.732;2023-04-15T04:28:35;13.38;;;8.38;;
65825;SDS011;52586;-43.152;172.732;2023-04-15T04:31:06;12.73;;;7.95;;
65825;SDS011;52586;-43.152;172.732;2023-04-15T04:33:37;11.45;;;7.22;;
65825;SDS011;52586;-43.152;172.732;2023-04-15T04:36:08;11.60;;;6.82;;
65825;SDS011;52586;-43.152;172.732;2023-04-15T04:38:38;10.90;;;6.30;;
65825;SDS011;52586;-43.152;172.732;2023-04-15T04:41:09;11.05;;;6.55;;
65825;SDS011;52586;-43.152;172.732;2023-04-15T04:43:42;10.77;;;6.55;;
65825;SDS011;52586;-43.152;172.732;2023-04-15T04:46:12;9.65;;;6.70;;
65825;SDS011;52586;-43.152;172.732;2023-04-15T04:48:43;10.63;;;6.20;;
65825;SDS011;52586;-43.152;172.732;2023-04-15T04:51:13;12.07;;;6.50;;
65825;SDS011;52586;-43.152;172.732;2023-04-15T04:53:44;11.23;;;6.25;;
65825;SDS011;52586;-43.152;172.732;2023-04-15T04:56:15;9.88;;;6.43;;
65825;SDS011;52586;-43.152;172.732;2023-04-15T04:58:47;10.88;;;5.60;;
65825;SDS011;52586;-43.152;172.732;2023-04-15T05:01:18;8.95;;;5.68;;
65825;SDS011;52586;-43.152;172.732;2023-04-15T05:03:48;9.07;;;5.40;;
65825;SDS011;52586;-43.152;172.732;2023-04-15T05:06:19;9.63;;;5.47;;
65825;SDS011;52586;-43.152;172.732;2023-04-15T05:08:50;8.73;;;5.72;;
65825;SDS011;52586;-43.152;172.732;2023-04-15T05:11:21;8.30;;;5.35;;
65825;SDS011;52586;-43.152;172.732;2023-04-15T05:13:54;7.90;;;4.85;;
65825;SDS011;52586;-43.152;172.732;2023-04-15T05:16:26;8.48;;;5.25;;
65825;SDS011;52586;-43.152;172.732;2023-04-15T05:18:57;10.27;;;5.80;;
65825;SDS011;52586;-43.152;172.732;2023-04-15T05:21:28;7.40;;;5.30;;
65825;SDS011;52586;-43.152;172.732;2023-04-15T05:23:59;7.30;;;4.63;;
65825;SDS011;52586;-43.152;172.732;2023-04-15T05:26:29;7.57;;;4.63;;
65825;SDS011;52586;-43.152;172.732;2023-04-15T05:29:03;7.70;;;4.55;;
65825;SDS011;52586;-43.152;172.732;2023-04-15T05:31:34;8.20;;;5.25;;
65825;SDS011;52586;-43.152;172.732;2023-04-15T05:34:04;9.75;;;4.68;;
65825;SDS011;52586;-43.152;172.732;2023-04-15T05:36:35;9.80;;;5.03;;
65825;SDS011;52586;-43.152;172.732;2023-04-15T05:39:06;8.05;;;4.70;;
65825;SDS011;52586;-43.152;172.732;2023-04-15T05:41:36;7.35;;;4.63;;
65825;SDS011;52586;-43.152;172.732;2023-04-15T05:44:09;9.50;;;4.97;;
65825;SDS011;52586;-43.152;172.732;2023-04-15T05:46:40;6.75;;;4.35;;
65825;SDS011;52586;-43.152;172.732;2023-04-15T05:49:10;8.43;;;4.57;;
65825;SDS011;52586;-43.152;172.732;2023-04-15T05:51:41;7.40;;;4.70;;
65825;SDS011;52586;-43.152;172.732;2023-04-15T05:54:12;7.65;;;4.35;;
65825;SDS011;52586;-43.152;172.732;2023-04-15T05:56:43;8.80;;;4.97;;
65825;SDS011;52586;-43.152;172.732;2023-04-15T05:59:16;5.75;;;4.15;;
65825;SDS011;52586;-43.152;172.732;2023-04-15T06:01:47;7.43;;;4.30;;
65825;SDS011;52586;-43.152;172.732;2023-04-15T06:04:18;7.47;;;4.43;;
65825;SDS011;52586;-43.152;172.732;2023-04-15T06:06:49;7.55;;;4.22;;
65825;SDS011;52586;-43.152;172.732;2023-04-15T06:09:19;6.65;;;4.22;;
65825;SDS011;52586;-43.152;172.732;2023-04-15T06:11:51;8.35;;;4.45;;
65825;SDS011;52586;-43.152;172.732;2023-04-15T06:14:23;7.88;;;4.22;;
65825;SDS011;52586;-43.152;172.732;2023-04-15T06:16:54;6.60;;;4.10;;
65825;SDS011;52586;-43.152;172.732;2023-04-15T06:19:25;7.10;;;4.25;;
65825;SDS011;52586;-43.152;172.732;2023-04-15T06:21:55;7.72;;;3.88;;
65825;SDS011;52586;-43.152;172.732;2023-04-15T06:24:26;6.50;;;4.00;;
65825;SDS011;52586;-43.152;172.732;2023-04-15T06:26:58;6.43;;;4.38;;
65825;SDS011;52586;-43.152;172.732;2023-04-15T06:29:30;7.65;;;4.20;;
65825;SDS011;52586;-43.152;172.732;2023-04-15T06:32:01;6.55;;;3.80;;
65825;SDS011;52586;-43.152;172.732;2023-04-15T06:34:31;6.93;;;4.20;;
65825;SDS011;52586;-43.152;172.732;2023-04-15T06:37:02;5.07;;;4.10;;
65825;SDS011;52586;-43.152;172.732;2023-04-15T06:39:35;6.97;;;4.43;;
65825;SDS011;52586;-43.152;172.732;2023-04-15T06:42:05;5.28;;;4.15;;
65825;SDS011;52586;-43.152;172.732;2023-04-15T06:44:38;5.95;;;3.90;;
65825;SDS011;52586;-43.152;172.732;2023-04-15T06:47:08;6.50;;;4.13;;
65825;SDS011;52586;-43.152;172.732;2023-04-15T06:49:40;6.25;;;4.22;;
65825;SDS011;52586;-43.152;172.732;2023-04-15T06:52:10;5.35;;;3.88;;
65825;SDS011;52586;-43.152;172.732;2023-04-15T06:54:41;4.93;;;3.50;;
65825;SDS011;52586;-43.152;172.732;2023-04-15T06:57:12;6.07;;;4.10;;
65825;SDS011;52586;-43.152;172.732;2023-04-15T06:59:44;6.32;;;3.95;;
65825;SDS011;52586;-43.152;172.732;2023-04-15T07:02:15;5.05;;;3.40;;
65825;SDS011;52586;-43.152;172.732;2023-04-15T07:04:46;5.38;;;3.85;;
65825;SDS011;52586;-43.152;172.732;2023-04-15T07:07:16;5.30;;;3.70;;
65825;SDS011;52586;-43.152;172.732;2023-04-15T07:09:47;5.82;;;3.85;;
65825;SDS011;52586;-43.152;172.732;2023-04-15T07:12:18;5.75;;;3.42;;
65825;SDS011;52586;-43.152;172.732;2023-04-15T07:14:51;5.22;;;3.78;;
65825;SDS011;52586;-43.152;172.732;2023-04-15T07:17:22;4.78;;;3.63;;
65825;SDS011;52586;-43.152;172.732;2023-04-15T07:19:52;4.63;;;2.88;;
65825;SDS011;52586;-43.152;172.732;2023-04-15T07:22:23;5.85;;;3.92;;
65825;SDS011;52586;-43.152;172.732;2023-04-15T07:24:54;5.95;;;3.72;;
65825;SDS011;52586;-43.152;172.732;2023-04-15T07:27:25;6.22;;;4.00;;
65825;SDS011;52586;-43.152;172.732;2023-04-15T07:29:58;5.97;;;3.60;;
65825;SDS011;52586;-43.152;172.732;2023-04-15T07:32:28;5.97;;;3.70;;
65825;SDS011;52586;-43.152;172.732;2023-04-15T07:34:59;5.32;;;3.65;;
65825;SDS011;52586;-43.152;172.732;2023-04-15T07:37:29;5.90;;;3.50;;
65825;SDS011;52586;-43.152;172.732;2023-04-15T07:40:00;5.05;;;3.33;;
65825;SDS011;52586;-43.152;172.732;2023-04-15T07:42:33;4.43;;;3.60;;
65825;SDS011;52586;-43.152;172.732;2023-04-15T07:45:06;5.05;;;3.22;;
65825;SDS011;52586;-43.152;172.732;2023-04-15T07:47:37;4.30;;;3.17;;
65825;SDS011;52586;-43.152;172.732;2023-04-15T07:50:08;5.25;;;3.35;;
65825;SDS011;52586;-43.152;172.732;2023-04-15T07:52:39;6.07;;;3.55;;
65825;SDS011;52586;-43.152;172.732;2023-04-15T07:55:10;5.70;;;3.35;;
65825;SDS011;52586;-43.152;172.732;2023-04-15T07:57:44;5.22;;;3.90;;
65825;SDS011;52586;-43.152;172.732;2023-04-15T08:00:17;3.95;;;3.13;;
65825;SDS011;52586;-43.152;172.732;2023-04-15T08:02:47;5.40;;;3.53;;
65825;SDS011;52586;-43.152;172.732;2023-04-15T08:05:18;5.50;;;3.63;;
65825;SDS011;52586;-43.152;172.732;2023-04-15T08:07:49;4.65;;;3.20;;
65825;SDS011;52586;-43.152;172.732;2023-04-15T08:10:20;4.72;;;3.00;;
65825;SDS011;52586;-43.152;172.732;2023-04-15T08:12:51;4.30;;;3.08;;
65825;SDS011;52586;-43.152;172.732;2023-04-15T08:15:24;4.28;;;2.65;;
65825;SDS011;52586;-43.152;172.732;2023-04-15T08:17:55;5.40;;;3.53;;
65825;SDS011;52586;-43.152;172.732;2023-04-15T08:20:26;4.95;;;3.13;;
65825;SDS011;52586;-43.152;172.732;2023-04-15T08:22:57;3.92;;;3.05;;
65825;SDS011;52586;-43.152;172.732;2023-04-15T08:25:27;4.03;;;2.67;;
65825;SDS011;52586;-43.152;172.732;2023-04-15T08:28:01;4.90;;;3.33;;
65825;SDS011;52586;-43.152;172.732;2023-04-15T08:30:36;4.40;;;3.03;;
65825;SDS011;52586;-43.152;172.732;2023-04-15T08:33:07;5.32;;;3.33;;
65825;SDS011;52586;-43.152;172.732;2023-04-15T08:35:38;4.45;;;2.90;;
65825;SDS011;52586;-43.152;172.732;2023-04-15T08:38:08;4.20;;;3.15;;
65825;SDS011;52586;-43.152;172.732;2023-04-15T08:40:40;3.60;;;2.83;;
65825;SDS011;52586;-43.152;172.732;2023-04-15T08:43:19;5.22;;;3.33;;
65825;SDS011;52586;-43.152;172.732;2023-04-15T08:45:54;3.88;;;3.13;;
65825;SDS011;52586;-43.152;172.732;2023-04-15T08:48:26;4.05;;;3.45;;
65825;SDS011;52586;-43.152;172.732;2023-04-15T08:51:00;4.30;;;3.30;;
65825;SDS011;52586;-43.152;172.732;2023-04-15T08:53:30;4.50;;;3.47;;
65825;SDS011;52586;-43.152;172.732;2023-04-15T08:56:02;5.13;;;3.72;;
65825;SDS011;52586;-43.152;172.732;2023-04-15T08:58:35;4.65;;;3.60;;
65825;SDS011;52586;-43.152;172.732;2023-04-15T09:01:07;5.13;;;3.40;;
65825;SDS011;52586;-43.152;172.732;2023-04-15T09:03:40;5.88;;;3.63;;
65825;SDS011;52586;-43.152;172.732;2023-04-15T09:06:11;5.05;;;3.70;;
65825;SDS011;52586;-43.152;172.732;2023-04-15T09:08:44;5.25;;;3.20;;
65825;SDS011;52586;-43.152;172.732;2023-04-15T09:11:14;5.30;;;3.40;;
65825;SDS011;52586;-43.152;172.732;2023-04-15T09:13:45;4.05;;;3.20;;
65825;SDS011;52586;-43.152;172.732;2023-04-15T09:16:18;5.40;;;3.65;;
65825;SDS011;52586;-43.152;172.732;2023-04-15T09:18:49;4.30;;;3.35;;
65825;SDS011;52586;-43.152;172.732;2023-04-15T09:21:20;5.82;;;3.67;;
65825;SDS011;52586;-43.152;172.732;2023-04-15T09:23:54;3.97;;;3.10;;
65825;SDS011;52586;-43.152;172.732;2023-04-15T09:26:32;4.55;;;3.30;;
65825;SDS011;52586;-43.152;172.732;2023-04-15T09:29:04;4.88;;;3.55;;
65825;SDS011;52586;-43.152;172.732;2023-04-15T09:31:37;4.75;;;3.30;;
65825;SDS011;52586;-43.152;172.732;2023-04-15T09:34:07;4.60;;;3.63;;
65825;SDS011;52586;-43.152;172.732;2023-04-15T09:36:50;5.53;;;3.28;;
65825;SDS011;52586;-43.152;172.732;2023-04-15T09:39:23;5.05;;;3.72;;
65825;SDS011;52586;-43.152;172.732;2023-04-15T09:42:05;4.93;;;3.28;;
65825;SDS011;52586;-43.152;172.732;2023-04-15T09:44:36;4.82;;;3.22;;
65825;SDS011;52586;-43.152;172.732;2023-04-15T09:47:09;4.55;;;3.08;;
65825;SDS011;52586;-43.152;172.732;2023-04-15T09:49:57;4.05;;;3.20;;
65825;SDS011;52586;-43.152;172.732;2023-04-15T09:52:29;5.43;;;3.40;;
65825;SDS011;52586;-43.152;172.732;2023-04-15T09:54:59;4.10;;;3.17;;
65825;SDS011;52586;-43.152;172.732;2023-04-15T09:57:33;4.60;;;3.17;;
65825;SDS011;52586;-43.152;172.732;2023-04-15T10:00:06;4.18;;;2.72;;
65825;SDS011;52586;-43.152;172.732;2023-04-15T10:02:40;5.03;;;3.45;;
65825;SDS011;52586;-43.152;172.732;2023-04-15T10:05:12;4.70;;;3.30;;
65825;SDS011;52586;-43.152;172.732;2023-04-15T10:07:44;3.47;;;2.97;;
65825;SDS011;52586;-43.152;172.732;2023-04-15T10:10:15;3.58;;;2.92;;
65825;SDS011;52586;-43.152;172.732;2023-04-15T10:12:46;5.00;;;3.03;;
65825;SDS011;52586;-43.152;172.732;2023-04-15T10:15:17;4.07;;;3.13;;
65825;SDS011;52586;-43.152;172.732;2023-04-15T10:17:50;3.83;;;2.85;;
65825;SDS011;52586;-43.152;172.732;2023-04-15T10:20:24;4.28;;;3.22;;
65825;SDS011;52586;-43.152;172.732;2023-04-15T10:22:56;3.55;;;3.00;;
65825;SDS011;52586;-43.152;172.732;2023-04-15T10:25:27;4.35;;;3.17;;
65825;SDS011;52586;-43.152;172.732;2023-04-15T10:27:58;4.30;;;3.00;;
65825;SDS011;52586;-43.152;172.732;2023-04-15T10:30:31;4.03;;;2.92;;
65825;SDS011;52586;-43.152;172.732;2023-04-15T10:33:04;4.93;;;3.45;;
65825;SDS011;52586;-43.152;172.732;2023-04-15T10:35:38;4.00;;;3.00;;
65825;SDS011;52586;-43.152;172.732;2023-04-15T10:43:54;4.63;;;3.15;;
65825;SDS011;52586;-43.152;172.732;2023-04-15T10:46:34;3.38;;;2.83;;
65825;SDS011;52586;-43.152;172.732;2023-04-15T10:49:10;3.97;;;3.25;;
65825;SDS011;52586;-43.152;172.732;2023-04-15T10:51:42;3.92;;;2.97;;
65825;SDS011;52586;-43.152;172.732;2023-04-15T10:54:14;4.18;;;3.58;;
65825;SDS011;52586;-43.152;172.732;2023-04-15T10:57:06;5.15;;;3.08;;
65825;SDS011;52586;-43.152;172.732;2023-04-15T11:02:38;4.15;;;2.88;;
65825;SDS011;52586;-43.152;172.732;2023-04-15T11:05:12;4.20;;;3.03;;
65825;SDS011;52586;-43.152;172.732;2023-04-15T11:07:47;4.30;;;3.20;;
65825;SDS011;52586;-43.152;172.732;2023-04-15T11:13:25;4.07;;;3.10;;
65825;SDS011;52586;-43.152;172.732;2023-04-15T11:15:58;4.32;;;3.15;;
65825;SDS011;52586;-43.152;172.732;2023-04-15T11:18:30;3.95;;;2.95;;
65825;SDS011;52586;-43.152;172.732;2023-04-15T11:21:06;3.90;;;2.53;;
65825;SDS011;52586;-43.152;172.732;2023-04-15T11:23:37;4.05;;;3.25;;
65825;SDS011;52586;-43.152;172.732;2023-04-15T11:26:11;3.58;;;2.92;;
65825;SDS011;52586;-43.152;172.732;2023-04-15T11:28:42;4.03;;;2.80;;
65825;SDS011;52586;-43.152;172.732;2023-04-15T11:31:14;3.08;;;2.75;;
65825;SDS011;52586;-43.152;172.732;2023-04-15T11:33:46;3.05;;;2.67;;
65825;SDS011;52586;-43.152;172.732;2023-04-15T11:36:28;3.88;;;2.63;;
65825;SDS011;52586;-43.152;172.732;2023-04-15T11:38:59;4.20;;;2.75;;
65825;SDS011;52586;-43.152;172.732;2023-04-15T11:41:29;4.25;;;3.00;;
65825;SDS011;52586;-43.152;172.732;2023-04-15T11:44:00;4.72;;;3.00;;
65825;SDS011;52586;-43.152;172.732;2023-04-15T11:46:31;4.43;;;2.78;;
65825;SDS011;52586;-43.152;172.732;2023-04-15T11:49:01;3.88;;;2.58;;
65825;SDS011;52586;-43.152;172.732;2023-04-15T11:51:34;3.80;;;3.25;;
65825;SDS011;52586;-43.152;172.732;2023-04-15T11:54:05;4.30;;;2.85;;
65825;SDS011;52586;-43.152;172.732;2023-04-15T11:56:36;3.97;;;2.65;;
65825;SDS011;52586;-43.152;172.732;2023-04-15T11:59:06;3.65;;;2.58;;
65825;SDS011;52586;-43.152;172.732;2023-04-15T12:01:37;2.83;;;2.35;;
65825;SDS011;52586;-43.152;172.732;2023-04-15T12:04:10;3.38;;;2.35;;
65825;SDS011;52586;-43.152;172.732;2023-04-15T12:06:44;2.72;;;2.30;;
65825;SDS011;52586;-43.152;172.732;2023-04-15T12:09:14;3.33;;;2.33;;
65825;SDS011;52586;-43.152;172.732;2023-04-15T12:11:45;3.92;;;2.70;;
65825;SDS011;52586;-43.152;172.732;2023-04-15T12:14:23;3.50;;;2.63;;
65825;SDS011;52586;-43.152;172.732;2023-04-15T12:16:56;4.13;;;2.65;;
65825;SDS011;52586;-43.152;172.732;2023-04-15T12:19:27;3.03;;;2.45;;
65825;SDS011;52586;-43.152;172.732;2023-04-15T12:22:01;3.67;;;2.85;;
65825;SDS011;52586;-43.152;172.732;2023-04-15T12:24:33;3.20;;;2.70;;
65825;SDS011;52586;-43.152;172.732;2023-04-15T12:27:07;3.38;;;2.47;;
65825;SDS011;52586;-43.152;172.732;2023-04-15T12:29:39;3.55;;;2.13;;
65825;SDS011;52586;-43.152;172.732;2023-04-15T12:32:10;3.53;;;2.75;;
65825;SDS011;52586;-43.152;172.732;2023-04-15T12:34:43;3.05;;;2.33;;
65825;SDS011;52586;-43.152;172.732;2023-04-15T12:37:19;3.08;;;2.65;;
65825;SDS011;52586;-43.152;172.732;2023-04-15T12:39:51;3.60;;;2.72;;
65825;SDS011;52586;-43.152;172.732;2023-04-15T12:42:21;4.22;;;2.90;;
65825;SDS011;52586;-43.152;172.732;2023-04-15T12:44:52;3.67;;;2.63;;
65825;SDS011;52586;-43.152;172.732;2023-04-15T12:47:23;2.80;;;2.35;;
65825;SDS011;52586;-43.152;172.732;2023-04-15T12:49:53;2.83;;;2.28;;
65825;SDS011;52586;-43.152;172.732;2023-04-15T12:52:27;3.03;;;2.28;;
65825;SDS011;52586;-43.152;172.732;2023-04-15T12:54:58;2.45;;;2.08;;
65825;SDS011;52586;-43.152;172.732;2023-04-15T12:57:28;2.47;;;2.28;;
65825;SDS011;52586;-43.152;172.732;2023-04-15T12:59:59;3.25;;;2.38;;
65825;SDS011;52586;-43.152;172.732;2023-04-15T13:02:32;2.90;;;2.05;;
65825;SDS011;52586;-43.152;172.732;2023-04-15T13:05:02;2.65;;;2.10;;
65825;SDS011;52586;-43.152;172.732;2023-04-15T13:07:35;2.78;;;2.10;;
65825;SDS011;52586;-43.152;172.732;2023-04-15T13:10:06;3.45;;;2.28;;
65825;SDS011;52586;-43.152;172.732;2023-04-15T13:12:37;3.40;;;2.20;;
65825;SDS011;52586;-43.152;172.732;2023-04-15T13:15:08;4.57;;;2.40;;
65825;SDS011;52586;-43.152;172.732;2023-04-15T13:17:39;3.97;;;2.30;;
65825;SDS011;52586;-43.152;172.732;2023-04-15T13:20:10;2.63;;;2.33;;
65825;SDS011;52586;-43.152;172.732;2023-04-15T13:22:42;3.58;;;2.30;;
65825;SDS011;52586;-43.152;172.732;2023-04-15T13:25:13;3.10;;;2.15;;
65825;SDS011;52586;-43.152;172.732;2023-04-15T13:27:44;2.25;;;2.00;;
65825;SDS011;52586;-43.152;172.732;2023-04-15T13:30:14;3.10;;;2.00;;
65825;SDS011;52586;-43.152;172.732;2023-04-15T13:32:45;2.97;;;2.10;;
65825;SDS011;52586;-43.152;172.732;2023-04-15T13:35:16;2.42;;;2.22;;
65825;SDS011;52586;-43.152;172.732;2023-04-15T13:37:48;2.88;;;2.05;;
65825;SDS011;52586;-43.152;172.732;2023-04-15T13:40:19;3.28;;;2.10;;
65825;SDS011;52586;-43.152;172.732;2023-04-15T13:42:50;2.65;;;2.15;;
65825;SDS011;52586;-43.152;172.732;2023-04-15T13:45:21;3.17;;;2.35;;
65825;SDS011;52586;-43.152;172.732;2023-04-15T13:47:52;2.58;;;1.92;;
65825;SDS011;52586;-43.152;172.732;2023-04-15T13:50:24;2.53;;;2.05;;
65825;SDS011;52586;-43.152;172.732;2023-04-15T13:52:56;2.47;;;2.28;;
65825;SDS011;52586;-43.152;172.732;2023-04-15T13:55:27;2.38;;;1.80;;
65825;SDS011;52586;-43.152;172.732;2023-04-15T13:57:57;3.53;;;2.22;;
65825;SDS011;52586;-43.152;172.732;2023-04-15T14:00:28;2.35;;;2.00;;
65825;SDS011;52586;-43.152;172.732;2023-04-15T14:02:59;2.60;;;1.80;;
65825;SDS011;52586;-43.152;172.732;2023-04-15T14:05:29;2.42;;;1.70;;
65825;SDS011;52586;-43.152;172.732;2023-04-15T14:08:02;2.78;;;2.10;;
65825;SDS011;52586;-43.152;172.732;2023-04-15T14:10:33;2.45;;;2.00;;
65825;SDS011;52586;-43.152;172.732;2023-04-15T14:13:04;2.88;;;1.88;;
65825;SDS011;52586;-43.152;172.732;2023-04-15T14:15:35;2.17;;;1.75;;
65825;SDS011;52586;-43.152;172.732;2023-04-15T14:18:05;2.67;;;1.90;;
65825;SDS011;52586;-43.152;172.732;2023-04-15T14:20:36;1.73;;;1.63;;
65825;SDS011;52586;-43.152;172.732;2023-04-15T14:23:08;2.17;;;1.80;;
65825;SDS011;52586;-43.152;172.732;2023-04-15T14:25:39;2.55;;;1.98;;
65825;SDS011;52586;-43.152;172.732;2023-04-15T14:28:10;2.17;;;1.88;;
65825;SDS011;52586;-43.152;172.732;2023-04-15T14:30:40;2.25;;;1.90;;
65825;SDS011;52586;-43.152;172.732;2023-04-15T14:33:11;2.95;;;1.60;;
65825;SDS011;52586;-43.152;172.732;2023-04-15T14:35:41;2.65;;;1.80;;
65825;SDS011;52586;-43.152;172.732;2023-04-15T14:38:14;2.35;;;1.80;;
65825;SDS011;52586;-43.152;172.732;2023-04-15T14:40:45;1.63;;;1.52;;
65825;SDS011;52586;-43.152;172.732;2023-04-15T14:43:15;1.88;;;1.63;;
65825;SDS011;52586;-43.152;172.732;2023-04-15T14:45:46;2.25;;;1.75;;